Time;durP1;ratioP1;P1;durP2;ratioP2;P2;SDS_P1;SDS_P2;PMS_P1;PMS_P2;Temp;Humidity;BMP_temperature;BMP_pressure;BME280_temperature;BME280_humidity;BME280_pressure;Samples;Min_cycle;Max_cycle;Signal;HPM_P1;HPM_P2
2021/07/27 00:02:16;;;;;;;6.90;5.83;;;;;;;;;;5055395;28;20188;-82
2021/07/27 00:04:42;;;;;;;7.30;6.00;;;;;;;;;;5055666;28;20271;-82
2021/07/27 00:07:12;;;;;;;8.73;5.73;;;;;;;;;;5058303;28;20234;-82
2021/07/27 00:09:38;;;;;;;7.40;5.50;;;;;;;;;;5073552;28;20184;-82
2021/07/27 00:12:04;;;;;;;5.60;5.10;;;;;;;;;;5054451;28;20196;-82
2021/07/27 00:14:30;;;;;;;6.37;5.77;;;;;;;;;;5073016;28;20176;-81
2021/07/27 00:16:56;;;;;;;5.77;4.90;;;;;;;;;;5054223;28;20189;-82
2021/07/27 00:19:22;;;;;;;6.53;5.57;;;;;;;;;;5053243;28;20184;-81
2021/07/27 00:21:48;;;;;;;8.20;5.63;;;;;;;;;;5052436;28;20183;-82
2021/07/27 00:24:15;;;;;;;9.13;5.13;;;;;;;;;;5073140;28;20185;-81
2021/07/27 00:26:41;;;;;;;6.30;5.67;;;;;;;;;;5054480;28;20248;-82
2021/07/27 00:29:07;;;;;;;10.63;6.83;;;;;;;;;;5054726;28;20168;-81
2021/07/27 00:31:33;;;;;;;6.00;5.07;;;;;;;;;;5054178;28;20184;-82
2021/07/27 00:34:00;;;;;;;8.07;5.43;;;;;;;;;;5034872;28;20209;-82
2021/07/27 00:36:26;;;;;;;6.77;5.50;;;;;;;;;;5052543;28;20283;-82
2021/07/27 00:38:52;;;;;;;6.10;5.53;;;;;;;;;;5054962;28;20480;-82
2021/07/27 00:41:18;;;;;;;5.83;5.30;;;;;;;;;;5054149;28;20180;-82
2021/07/27 00:43:44;;;;;;;5.47;4.97;;;;;;;;;;5088519;28;20197;-82
2021/07/27 00:46:10;;;;;;;6.10;5.50;;;;;;;;;;5089003;28;20195;-82
2021/07/27 00:48:36;;;;;;;5.53;4.97;;;;;;;;;;5104556;28;20188;-82
2021/07/27 00:51:02;;;;;;;7.17;5.30;;;;;;;;;;5105661;28;20182;-82
2021/07/27 00:53:28;;;;;;;5.50;5.00;;;;;;;;;;5103182;28;20639;-82
2021/07/27 00:55:54;;;;;;;7.27;6.43;;;;;;;;;;5069077;28;20653;-82
2021/07/27 00:58:20;;;;;;;8.97;5.90;;;;;;;;;;5072195;28;20218;-82
2021/07/27 01:00:46;;;;;;;7.73;5.83;;;;;;;;;;5071938;28;20168;-82
2021/07/27 01:03:12;;;;;;;7.20;5.60;;;;;;;;;;5072513;28;20218;-82
2021/07/27 01:05:38;;;;;;;6.80;6.10;;;;;;;;;;5071894;28;20185;-82
2021/07/27 01:08:05;;;;;;;7.43;6.63;;;;;;;;;;5072122;28;20189;-82
2021/07/27 01:10:31;;;;;;;8.77;5.90;;;;;;;;;;5054293;28;20183;-81
2021/07/27 01:12:57;;;;;;;7.20;5.90;;;;;;;;;;5050379;28;20197;-82
2021/07/27 01:15:23;;;;;;;8.67;5.80;;;;;;;;;;5099221;28;20180;-82
2021/07/27 01:17:51;;;;;;;8.10;6.60;;;;;;;;;;5104839;28;20540;-82
2021/07/27 01:44:30;;;;;;;8.47;7.47;;;;;;;;;;5073323;28;20183;-82
2021/07/27 01:46:57;;;;;;;8.77;7.50;;;;;;;;;;5104509;28;20169;-81
2021/07/27 01:49:23;;;;;;;8.83;7.93;;;;;;;;;;5070704;28;21003;-82
2021/07/27 01:51:49;;;;;;;8.43;7.47;;;;;;;;;;5070887;28;20259;-82
2021/07/27 01:54:16;;;;;;;9.10;7.80;;;;;;;;;;5074901;28;20184;-82
2021/07/27 01:56:48;;;;;;;13.07;7.23;;;;;;;;;;5057382;28;20294;-81
2021/07/27 01:59:14;;;;;;;10.50;7.63;;;;;;;;;;5075855;28;20639;-81
2021/07/27 02:01:40;;;;;;;11.43;7.67;;;;;;;;;;5075090;28;20254;-82
2021/07/27 02:04:06;;;;;;;7.80;6.90;;;;;;;;;;5109079;28;20181;-82
2021/07/27 02:06:33;;;;;;;9.53;7.60;;;;;;;;;;5074019;28;20197;-82
2021/07/27 02:09:05;;;;;;;9.00;7.70;;;;;;;;;;5073495;28;20201;-81
2021/07/27 02:11:38;;;;;;;10.70;8.20;;;;;;;;;;5074978;28;20177;-81
2021/07/27 02:14:04;;;;;;;9.97;8.67;;;;;;;;;;5038052;28;20212;-82
2021/07/27 02:16:30;;;;;;;10.37;8.73;;;;;;;;;;5058864;28;20172;-82
2021/07/27 02:18:59;;;;;;;9.67;8.40;;;;;;;;;;5062035;28;20271;-82
2021/07/27 02:21:25;;;;;;;11.10;9.77;;;;;;;;;;5093250;28;20173;-82
2021/07/27 02:23:51;;;;;;;13.20;9.87;;;;;;;;;;5080586;28;20168;-81
2021/07/27 02:26:17;;;;;;;9.73;8.67;;;;;;;;;;5073380;28;20184;-81
2021/07/27 02:28:43;;;;;;;13.83;8.97;;;;;;;;;;5066786;28;20180;-81
2021/07/27 02:31:15;;;;;;;10.30;9.07;;;;;;;;;;5074278;28;20184;-82
2021/07/27 02:33:41;;;;;;;10.90;9.17;;;;;;;;;;5074094;28;20262;-81
2021/07/27 02:36:07;;;;;;;10.27;9.20;;;;;;;;;;5073763;28;20273;-82
2021/07/27 02:38:33;;;;;;;10.30;8.07;;;;;;;;;;5108260;28;20180;-82
2021/07/27 02:40:59;;;;;;;11.17;9.50;;;;;;;;;;5075149;28;20164;-81
2021/07/27 02:43:25;;;;;;;13.20;9.07;;;;;;;;;;5107424;28;20272;-81
2021/07/27 02:45:51;;;;;;;10.03;8.93;;;;;;;;;;5073852;28;20944;-82
2021/07/27 02:48:17;;;;;;;15.93;9.97;;;;;;;;;;5107687;28;20627;-81
2021/07/27 02:50:43;;;;;;;12.27;9.27;;;;;;;;;;5074768;28;20203;-81
2021/07/27 02:53:11;;;;;;;11.90;8.90;;;;;;;;;;5106921;28;20204;-81
2021/07/27 02:55:37;;;;;;;13.70;9.90;;;;;;;;;;5107886;28;20223;-82
2021/07/27 02:58:03;;;;;;;11.67;9.77;;;;;;;;;;5076139;28;20192;-82
2021/07/27 03:00:29;;;;;;;10.93;9.87;;;;;;;;;;5110000;28;20175;-81
2021/07/27 03:02:56;;;;;;;19.17;11.63;;;;;;;;;;5075543;28;20184;-82
2021/07/27 03:05:22;;;;;;;15.17;9.63;;;;;;;;;;5076052;28;20290;-82
2021/07/27 03:07:50;;;;;;;12.77;9.23;;;;;;;;;;5076054;28;20195;-81
2021/07/27 03:10:17;;;;;;;12.80;11.50;;;;;;;;;;5075796;28;20172;-81
2021/07/27 03:12:53;;;;;;;12.90;10.83;;;;;;;;;;5075519;28;20210;-82
2021/07/27 03:15:20;;;;;;;11.90;10.60;;;;;;;;;;5093652;28;20163;-82
2021/07/27 03:17:46;;;;;;;15.27;11.03;;;;;;;;;;5109102;28;20560;-82
2021/07/27 03:20:15;;;;;;;12.17;9.97;;;;;;;;;;5109943;28;20229;-82
2021/07/27 03:22:41;;;;;;;12.97;11.03;;;;;;;;;;5091756;28;20207;-82
2021/07/27 03:25:08;;;;;;;14.47;11.67;;;;;;;;;;5072740;28;20229;-82
2021/07/27 03:27:35;;;;;;;13.83;10.20;;;;;;;;;;5108564;28;20259;-81
2021/07/27 03:30:01;;;;;;;13.00;11.70;;;;;;;;;;5075536;28;20232;-81
2021/07/27 03:32:27;;;;;;;18.60;10.67;;;;;;;;;;5109152;28;20203;-82
2021/07/27 03:34:53;;;;;;;13.57;11.13;;;;;;;;;;5094675;28;20179;-82
2021/07/27 03:37:19;;;;;;;13.87;10.33;;;;;;;;;;5067124;28;20176;-82
2021/07/27 03:39:47;;;;;;;14.30;11.03;;;;;;;;;;5075459;28;20240;-82
2021/07/27 03:42:13;;;;;;;18.90;12.80;;;;;;;;;;5067499;28;20807;-82
2021/07/27 03:44:39;;;;;;;15.73;14.13;;;;;;;;;;5071475;28;20588;-82
2021/07/27 03:47:05;;;;;;;16.23;12.17;;;;;;;;;;5108489;28;20192;-82
2021/07/27 03:49:31;;;;;;;13.73;12.27;;;;;;;;;;5094616;28;20183;-82
2021/07/27 03:52:01;;;;;;;15.73;12.23;;;;;;;;;;5089551;28;20172;-82
2021/07/27 03:54:28;;;;;;;17.47;12.40;;;;;;;;;;5076133;28;20207;-81
2021/07/27 03:56:54;;;;;;;14.50;12.33;;;;;;;;;;5092884;28;20224;-81
2021/07/27 03:59:20;;;;;;;20.00;12.77;;;;;;;;;;5075858;28;20268;-82
2021/07/27 04:01:46;;;;;;;18.27;14.60;;;;;;;;;;5090514;28;20203;-81
2021/07/27 04:04:12;;;;;;;20.40;14.60;;;;;;;;;;5091733;28;20171;-81
2021/07/27 04:06:38;;;;;;;18.43;14.20;;;;;;;;;;5074120;28;20200;-81
2021/07/27 04:09:04;;;;;;;18.37;13.83;;;;;;;;;;5093788;28;20195;-81
2021/07/27 04:11:30;;;;;;;22.63;16.07;;;;;;;;;;5070489;28;20180;-81
2021/07/27 04:13:56;;;;;;;17.50;14.37;;;;;;;;;;5070637;28;20196;-82
2021/07/27 04:16:22;;;;;;;20.63;16.40;;;;;;;;;;5064421;28;20176;-81
2021/07/27 04:18:48;;;;;;;25.20;19.93;;;;;;;;;;5071406;28;20226;-82
2021/07/27 04:21:14;;;;;;;28.03;20.83;;;;;;;;;;5074263;28;20176;-83
2021/07/27 04:23:40;;;;;;;28.40;20.10;;;;;;;;;;5067666;28;20180;-82
2021/07/27 04:26:06;;;;;;;25.37;20.10;;;;;;;;;;5073747;28;20275;-82
2021/07/27 04:28:32;;;;;;;28.47;19.40;;;;;;;;;;5077014;28;20176;-82
2021/07/27 04:30:59;;;;;;;24.63;18.70;;;;;;;;;;5073456;28;20702;-83
2021/07/27 04:33:27;;;;;;;24.40;18.60;;;;;;;;;;5085128;28;20260;-83
2021/07/27 04:35:54;;;;;;;22.50;16.77;;;;;;;;;;5074171;28;20180;-82
2021/07/27 04:38:23;;;;;;;23.40;19.27;;;;;;;;;;5074478;28;20176;-82
2021/07/27 04:40:53;;;;;;;20.93;17.40;;;;;;;;;;5074347;28;20179;-82
2021/07/27 04:43:19;;;;;;;26.80;19.20;;;;;;;;;;5085482;28;20183;-82
2021/07/27 04:45:45;;;;;;;20.80;17.70;;;;;;;;;;5107940;28;20199;-83
2021/07/27 04:48:11;;;;;;;23.93;17.07;;;;;;;;;;5073499;28;20175;-82
2021/07/27 04:50:37;;;;;;;20.30;17.13;;;;;;;;;;5074679;28;20179;-83
2021/07/27 04:53:05;;;;;;;17.37;15.37;;;;;;;;;;5068259;28;20203;-81
2021/07/27 04:55:31;;;;;;;22.93;17.73;;;;;;;;;;5088214;28;20176;-81
2021/07/27 04:57:57;;;;;;;21.67;17.40;;;;;;;;;;5068023;28;20256;-81
2021/07/27 05:00:26;;;;;;;20.53;17.20;;;;;;;;;;5064731;28;20548;-82
2021/07/27 05:02:52;;;;;;;21.90;17.37;;;;;;;;;;5065121;28;20607;-82
2021/07/27 05:05:19;;;;;;;23.50;16.93;;;;;;;;;;5072374;28;20183;-82
2021/07/27 05:07:45;;;;;;;22.47;17.77;;;;;;;;;;5064840;28;20204;-81
2021/07/27 05:10:12;;;;;;;19.67;16.57;;;;;;;;;;5090777;28;20176;-80
2021/07/27 05:12:38;;;;;;;20.50;16.50;;;;;;;;;;5073919;28;20662;-81
2021/07/27 05:15:05;;;;;;;21.03;15.33;;;;;;;;;;5087692;28;20180;-81
2021/07/27 05:17:31;;;;;;;21.57;17.33;;;;;;;;;;5068585;28;20167;-81
2021/07/27 05:19:57;;;;;;;23.80;16.47;;;;;;;;;;5074079;28;20172;-81
2021/07/27 05:22:23;;;;;;;20.70;16.27;;;;;;;;;;5073671;28;20236;-80
2021/07/27 05:24:53;;;;;;;17.10;14.83;;;;;;;;;;5074958;28;20241;-81
2021/07/27 05:27:19;;;;;;;17.97;15.60;;;;;;;;;;5066402;28;20183;-81
2021/07/27 05:29:47;;;;;;;18.17;15.37;;;;;;;;;;5078362;28;20187;-81
2021/07/27 05:32:13;;;;;;;18.60;15.53;;;;;;;;;;5075311;28;20294;-81
2021/07/27 05:34:39;;;;;;;17.40;15.57;;;;;;;;;;5072347;28;20207;-81
2021/07/27 05:37:05;;;;;;;21.57;15.10;;;;;;;;;;5076836;28;20180;-81
2021/07/27 05:39:31;;;;;;;18.87;15.30;;;;;;;;;;5078602;28;20172;-81
2021/07/27 05:41:57;;;;;;;18.33;14.43;;;;;;;;;;5080920;28;20259;-81
2021/07/27 05:44:26;;;;;;;17.07;14.20;;;;;;;;;;5077799;28;20661;-81
2021/07/27 05:46:56;;;;;;;16.93;14.03;;;;;;;;;;5058882;28;20229;-81
2021/07/27 05:49:22;;;;;;;16.63;14.17;;;;;;;;;;5078143;28;20207;-81
2021/07/27 05:51:49;;;;;;;18.30;14.13;;;;;;;;;;5095156;28;20187;-81
2021/07/27 05:54:15;;;;;;;17.77;14.73;;;;;;;;;;5095115;28;20604;-80
2021/07/27 05:56:41;;;;;;;16.50;14.53;;;;;;;;;;5068353;28;20271;-81
2021/07/27 05:59:07;;;;;;;16.60;13.43;;;;;;;;;;5078063;28;20211;-81
2021/07/27 06:01:33;;;;;;;14.07;12.60;;;;;;;;;;5075928;28;20485;-81
2021/07/27 06:03:59;;;;;;;23.13;15.47;;;;;;;;;;5068108;28;20183;-81
2021/07/27 06:06:31;;;;;;;21.53;13.93;;;;;;;;;;5092881;28;20304;-81
2021/07/27 06:08:58;;;;;;;15.77;12.80;;;;;;;;;;5074897;28;20180;-81
2021/07/27 06:11:24;;;;;;;14.20;12.43;;;;;;;;;;5075511;28;20180;-81
2021/07/27 06:13:50;;;;;;;20.97;14.33;;;;;;;;;;5091918;28;20191;-80
2021/07/27 06:16:16;;;;;;;14.40;12.87;;;;;;;;;;5077086;28;20597;-81
2021/07/27 06:18:42;;;;;;;17.43;12.27;;;;;;;;;;5077215;28;20180;-81
2021/07/27 06:21:10;;;;;;;16.20;12.73;;;;;;;;;;5075450;28;20164;-81
2021/07/27 06:23:36;;;;;;;15.60;12.80;;;;;;;;;;5086484;28;20204;-81
2021/07/27 06:26:06;;;;;;;14.03;12.20;;;;;;;;;;5073110;28;20208;-81
2021/07/27 06:28:33;;;;;;;14.90;12.13;;;;;;;;;;5073100;28;20184;-81
2021/07/27 06:30:59;;;;;;;13.50;11.57;;;;;;;;;;5073648;28;20188;-81
2021/07/27 06:33:25;;;;;;;12.37;11.10;;;;;;;;;;5077109;28;20318;-81
2021/07/27 06:35:58;;;;;;;15.40;11.90;;;;;;;;;;5077157;28;20199;-81
2021/07/27 06:38:24;;;;;;;14.40;11.57;;;;;;;;;;5076373;28;20177;-81
2021/07/27 06:40:50;;;;;;;12.87;10.10;;;;;;;;;;5076635;28;20176;-81
2021/07/27 06:43:17;;;;;;;12.03;10.83;;;;;;;;;;5076123;28;20183;-81
2021/07/27 06:45:43;;;;;;;14.17;11.70;;;;;;;;;;5072479;28;20787;-81
2021/07/27 06:48:12;;;;;;;11.60;10.40;;;;;;;;;;5077466;28;20536;-81
2021/07/27 06:50:38;;;;;;;11.47;10.20;;;;;;;;;;5094996;28;20181;-79
2021/07/27 06:53:04;;;;;;;13.20;10.10;;;;;;;;;;5071001;28;20208;-80
2021/07/27 06:55:30;;;;;;;11.40;10.30;;;;;;;;;;5076696;28;20534;-78
2021/07/27 06:57:56;;;;;;;12.73;10.33;;;;;;;;;;5096221;28;20188;-78
2021/07/27 07:00:22;;;;;;;10.80;9.70;;;;;;;;;;5095625;28;20183;-79
2021/07/27 07:02:48;;;;;;;11.87;10.33;;;;;;;;;;5071723;28;20278;-79
2021/07/27 07:05:14;;;;;;;9.93;8.93;;;;;;;;;;5075941;28;20339;-78
2021/07/27 07:07:40;;;;;;;10.10;9.10;;;;;;;;;;5061178;28;20713;-79
2021/07/27 07:10:07;;;;;;;10.97;9.67;;;;;;;;;;5092688;28;20234;-80
2021/07/27 07:12:33;;;;;;;10.03;8.50;;;;;;;;;;5075344;28;20208;-78
2021/07/27 07:14:59;;;;;;;10.23;8.97;;;;;;;;;;5094584;28;20179;-78
2021/07/27 07:17:25;;;;;;;10.33;9.37;;;;;;;;;;5089949;28;20197;-80
2021/07/27 07:19:52;;;;;;;10.07;9.10;;;;;;;;;;5074611;28;20580;-79
2021/07/27 07:22:19;;;;;;;11.70;8.97;;;;;;;;;;5089050;28;20217;-79
2021/07/27 07:24:45;;;;;;;9.77;8.87;;;;;;;;;;5086681;28;20215;-78
2021/07/27 07:27:12;;;;;;;9.47;8.47;;;;;;;;;;5074893;28;20202;-79
2021/07/27 07:29:38;;;;;;;12.67;9.60;;;;;;;;;;5080693;28;20180;-78
2021/07/27 07:32:04;;;;;;;10.83;9.03;;;;;;;;;;5078066;28;20204;-78
2021/07/27 07:34:30;;;;;;;10.17;9.03;;;;;;;;;;5076833;28;20622;-78
2021/07/27 07:36:56;;;;;;;9.80;8.80;;;;;;;;;;5098085;28;20587;-79
2021/07/27 07:39:22;;;;;;;13.50;8.50;;;;;;;;;;5077408;28;20187;-78
2021/07/27 07:41:48;;;;;;;9.83;8.07;;;;;;;;;;5077281;28;20377;-78
2021/07/27 07:44:15;;;;;;;10.03;8.37;;;;;;;;;;5076268;28;20257;-78
2021/07/27 07:46:41;;;;;;;10.97;8.83;;;;;;;;;;5071706;28;20192;-80
2021/07/27 07:49:07;;;;;;;11.17;8.90;;;;;;;;;;5075932;28;20179;-78
2021/07/27 07:51:35;;;;;;;8.53;7.33;;;;;;;;;;5067715;28;20180;-79
2021/07/27 07:54:01;;;;;;;8.33;7.10;;;;;;;;;;5073929;28;20299;-79
2021/07/27 07:56:27;;;;;;;8.53;7.73;;;;;;;;;;5087237;28;20215;-79
2021/07/27 07:58:53;;;;;;;9.50;7.80;;;;;;;;;;5063784;28;20183;-78
2021/07/27 08:01:19;;;;;;;9.17;8.30;;;;;;;;;;5083867;28;20176;-78
2021/07/27 08:03:45;;;;;;;12.70;7.97;;;;;;;;;;5071529;28;20172;-78
2021/07/27 08:06:11;;;;;;;8.93;8.03;;;;;;;;;;5075198;28;20524;-78
2021/07/27 08:08:38;;;;;;;10.63;7.70;;;;;;;;;;5087982;28;20187;-79
2021/07/27 08:11:05;;;;;;;9.50;7.97;;;;;;;;;;5086177;28;20341;-79
2021/07/27 08:13:31;;;;;;;9.30;7.80;;;;;;;;;;5093223;28;20199;-80
2021/07/27 08:15:57;;;;;;;8.53;6.97;;;;;;;;;;5085174;28;20179;-79
2021/07/27 08:18:24;;;;;;;9.03;8.13;;;;;;;;;;5103965;28;20184;-78
2021/07/27 08:20:50;;;;;;;8.80;6.63;;;;;;;;;;5074397;28;20294;-78
2021/07/27 08:23:17;;;;;;;7.90;7.10;;;;;;;;;;5077864;28;20229;-79
2021/07/27 08:25:43;;;;;;;8.93;8.03;;;;;;;;;;5090262;28;21075;-79
2021/07/27 08:28:09;;;;;;;11.57;7.80;;;;;;;;;;5074310;28;20183;-78
2021/07/27 08:30:35;;;;;;;10.87;7.13;;;;;;;;;;5085223;28;20175;-79
2021/07/27 08:33:01;;;;;;;11.80;7.90;;;;;;;;;;5090741;28;20192;-78
2021/07/27 08:35:27;;;;;;;10.43;8.17;;;;;;;;;;5074182;28;20192;-78
2021/07/27 08:37:53;;;;;;;9.10;8.20;;;;;;;;;;5078990;28;20176;-78
2021/07/27 08:40:21;;;;;;;8.07;7.27;;;;;;;;;;5073474;28;20226;-78
2021/07/27 08:42:47;;;;;;;11.40;7.47;;;;;;;;;;5087430;28;20183;-79
2021/07/27 08:45:14;;;;;;;9.20;8.00;;;;;;;;;;5070996;28;20188;-78
2021/07/27 08:47:41;;;;;;;9.10;8.17;;;;;;;;;;5086333;28;20201;-78
2021/07/27 08:50:09;;;;;;;8.47;7.57;;;;;;;;;;5068799;28;20926;-79
2021/07/27 08:52:35;;;;;;;12.00;8.27;;;;;;;;;;5086247;28;20196;-79
2021/07/27 08:55:01;;;;;;;9.57;8.07;;;;;;;;;;5071110;28;20315;-79
2021/07/27 08:57:27;;;;;;;8.27;7.47;;;;;;;;;;5060838;28;20299;-79
2021/07/27 08:59:54;;;;;;;7.80;7.10;;;;;;;;;;5059641;28;20592;-78
2021/07/27 09:02:27;;;;;;;10.50;7.67;;;;;;;;;;5088646;28;20168;-78
2021/07/27 09:05:07;;;;;;;10.77;7.83;;;;;;;;;;5064514;28;20295;-78
2021/07/27 09:07:33;;;;;;;9.00;8.00;;;;;;;;;;5077560;28;20196;-78
2021/07/27 09:09:59;;;;;;;8.50;7.60;;;;;;;;;;5066575;28;20184;-79
2021/07/27 09:12:25;;;;;;;13.97;7.97;;;;;;;;;;5090216;28;20196;-81
2021/07/27 09:14:51;;;;;;;9.33;8.30;;;;;;;;;;5072580;28;20515;-79
2021/07/27 09:17:24;;;;;;;9.27;7.70;;;;;;;;;;5072664;28;20176;-83
2021/07/27 09:19:51;;;;;;;8.50;7.73;;;;;;;;;;5096752;28;20263;-80
2021/07/27 09:22:17;;;;;;;9.63;7.90;;;;;;;;;;5086825;28;20288;-79
2021/07/27 09:24:43;;;;;;;9.70;7.40;;;;;;;;;;5064269;28;20538;-78
2021/07/27 09:27:09;;;;;;;10.67;8.60;;;;;;;;;;5071689;28;20197;-80
2021/07/27 09:29:45;;;;;;;8.87;7.90;;;;;;;;;;5073247;28;20691;-79
2021/07/27 09:32:19;;;;;;;9.30;7.87;;;;;;;;;;5087371;28;20241;-80
2021/07/27 09:34:45;;;;;;;10.67;6.97;;;;;;;;;;5088788;28;20179;-80
2021/07/27 09:37:11;;;;;;;9.13;8.23;;;;;;;;;;5073060;28;20201;-79
2021/07/27 09:39:37;;;;;;;8.30;7.50;;;;;;;;;;5076393;28;20508;-79
2021/07/27 09:42:05;;;;;;;12.83;8.70;;;;;;;;;;5066704;28;20177;-79
2021/07/27 09:44:32;;;;;;;11.07;8.13;;;;;;;;;;5074000;28;20184;-79
2021/07/27 09:46:58;;;;;;;11.77;7.93;;;;;;;;;;5091467;28;20180;-80
2021/07/27 09:49:26;;;;;;;9.17;8.27;;;;;;;;;;5070585;28;20172;-79
2021/07/27 09:51:52;;;;;;;8.77;7.93;;;;;;;;;;5070729;28;20180;-79
2021/07/27 09:54:23;;;;;;;9.87;8.20;;;;;;;;;;5090047;28;20200;-79
2021/07/27 09:56:49;;;;;;;8.43;7.57;;;;;;;;;;5072684;28;20224;-79
2021/07/27 09:59:16;;;;;;;8.77;7.83;;;;;;;;;;5091835;28;20172;-79
2021/07/27 10:02:03;;;;;;;8.93;8.10;;;;;;;;;;5084934;28;20300;-78
2021/07/27 10:04:37;;;;;;;8.53;7.73;;;;;;;;;;5084858;28;20183;-79
2021/07/27 10:07:04;;;;;;;10.03;7.63;;;;;;;;;;5072834;28;20268;-80
2021/07/27 10:09:34;;;;;;;8.00;7.13;;;;;;;;;;5073973;28;20185;-79
2021/07/27 10:12:13;;;;;;;9.13;8.13;;;;;;;;;;5083096;28;20551;-79
2021/07/27 10:14:46;;;;;;;9.23;7.10;;;;;;;;;;5060885;28;20217;-79
2021/07/27 10:17:12;;;;;;;9.40;7.93;;;;;;;;;;5076565;28;20175;-79
2021/07/27 10:19:40;;;;;;;8.50;7.20;;;;;;;;;;5085785;28;20172;-79
2021/07/27 10:22:07;;;;;;;8.40;7.20;;;;;;;;;;5088567;28;20192;-79
2021/07/27 10:24:43;;;;;;;9.63;7.90;;;;;;;;;;5076100;28;20180;-79
2021/07/27 10:27:24;;;;;;;8.30;7.40;;;;;;;;;;5094451;28;20168;-80
2021/07/27 10:29:51;;;;;;;12.27;7.93;;;;;;;;;;5065428;28;20173;-79
2021/07/27 10:32:23;;;;;;;10.10;7.70;;;;;;;;;;5076464;28;20184;-78
2021/07/27 10:34:52;;;;;;;10.40;8.27;;;;;;;;;;5070415;28;20202;-82
2021/07/27 10:37:18;;;;;;;8.53;7.63;;;;;;;;;;5072434;28;20267;-80
2021/07/27 10:39:59;;;;;;;10.27;7.80;;;;;;;;;;5085669;28;20180;-79
2021/07/27 10:42:26;;;;;;;10.17;8.10;;;;;;;;;;5068743;28;20186;-80
2021/07/27 10:44:52;;;;;;;11.47;7.80;;;;;;;;;;5075771;28;20181;-80
2021/07/27 10:47:22;;;;;;;8.87;7.30;;;;;;;;;;5075246;28;20188;-81
2021/07/27 10:50:01;;;;;;;10.87;7.53;;;;;;;;;;5081640;28;20237;-81
2021/07/27 10:52:27;;;;;;;7.17;6.47;;;;;;;;;;5075363;28;20511;-80
2021/07/27 10:54:56;;;;;;;9.33;7.60;;;;;;;;;;5086527;28;20203;-81
2021/07/27 10:57:24;;;;;;;8.63;7.23;;;;;;;;;;5068634;28;20360;-80
2021/07/27 10:59:50;;;;;;;7.77;7.07;;;;;;;;;;5095995;28;20623;-80
2021/07/27 11:02:16;;;;;;;8.20;7.50;;;;;;;;;;5077086;28;20541;-81
2021/07/27 11:04:43;;;;;;;8.33;7.53;;;;;;;;;;5093526;28;20247;-80
2021/07/27 11:07:12;;;;;;;9.20;8.30;;;;;;;;;;5075370;28;20441;-83
2021/07/27 11:09:51;;;;;;;9.70;8.27;;;;;;;;;;5071999;28;20203;-83
2021/07/27 11:12:33;;;;;;;8.83;7.93;;;;;;;;;;5075760;28;20184;-83
2021/07/27 11:15:07;;;;;;;10.37;7.97;;;;;;;;;;5076350;28;20226;-83
2021/07/27 11:17:33;;;;;;;10.40;9.23;;;;;;;;;;5076415;28;20164;-83
2021/07/27 11:19:59;;;;;;;11.57;8.80;;;;;;;;;;5075172;28;20442;-83
2021/07/27 11:22:26;;;;;;;8.20;6.93;;;;;;;;;;5063106;28;20173;-83
2021/07/27 11:24:53;;;;;;;11.93;8.60;;;;;;;;;;5089446;28;20195;-84
2021/07/27 11:27:23;;;;;;;8.60;7.73;;;;;;;;;;5067564;28;20698;-83
2021/07/27 11:29:56;;;;;;;13.13;7.97;;;;;;;;;;5075330;28;20189;-83
2021/07/27 11:32:25;;;;;;;9.20;7.10;;;;;;;;;;5074625;28;20211;-83
2021/07/27 11:34:56;;;;;;;9.40;7.73;;;;;;;;;;5076965;28;20176;-82
2021/07/27 11:37:26;;;;;;;8.60;6.80;;;;;;;;;;5077275;28;20529;-83
2021/07/27 11:39:52;;;;;;;7.73;6.93;;;;;;;;;;5089336;28;20180;-83
2021/07/27 11:42:28;;;;;;;7.40;6.73;;;;;;;;;;5075592;28;20199;-82
2021/07/27 11:44:54;;;;;;;7.90;7.00;;;;;;;;;;5075831;28;20182;-83
2021/07/27 11:47:20;;;;;;;7.83;7.07;;;;;;;;;;5066615;28;20176;-83
2021/07/27 11:49:56;;;;;;;9.43;6.60;;;;;;;;;;5073834;28;20173;-83
2021/07/27 11:52:27;;;;;;;7.50;6.77;;;;;;;;;;5072941;28;20176;-82
2021/07/27 11:55:00;;;;;;;12.07;7.57;;;;;;;;;;5091637;28;20185;-82
2021/07/27 11:57:27;;;;;;;7.70;6.90;;;;;;;;;;5081359;28;20270;-80
2021/07/27 11:59:54;;;;;;;7.83;6.80;;;;;;;;;;5070076;28;20173;-80
2021/07/27 12:02:20;;;;;;;6.87;6.27;;;;;;;;;;5105459;28;20200;-80
2021/07/27 12:04:46;;;;;;;7.03;6.43;;;;;;;;;;5090502;28;20192;-80
2021/07/27 12:07:17;;;;;;;7.07;6.37;;;;;;;;;;5073472;28;20196;-80
2021/07/27 12:09:43;;;;;;;7.17;6.47;;;;;;;;;;5086851;28;20630;-80
2021/07/27 12:12:09;;;;;;;7.40;6.67;;;;;;;;;;5083933;28;20189;-79
2021/07/27 12:14:35;;;;;;;9.93;7.37;;;;;;;;;;5076012;28;20225;-80
2021/07/27 12:17:01;;;;;;;8.50;6.87;;;;;;;;;;5110702;28;20292;-80
2021/07/27 12:19:27;;;;;;;7.82;7.03;;;;;;;;;;5072941;28;20500;-78
2021/07/27 12:21:55;;;;;;;7.57;6.80;;;;;;;;;;5080576;28;20224;-80
2021/07/27 12:24:21;;;;;;;6.97;6.33;;;;;;;;;;5081629;28;20310;-81
2021/07/27 12:26:47;;;;;;;10.27;7.70;;;;;;;;;;5073586;28;20260;-80
2021/07/27 12:29:13;;;;;;;7.50;6.70;;;;;;;;;;5073788;28;20188;-80
2021/07/27 12:31:39;;;;;;;7.40;6.70;;;;;;;;;;5074048;28;20180;-78
2021/07/27 12:34:06;;;;;;;9.77;6.50;;;;;;;;;;5089878;28;20203;-80
2021/07/27 12:36:33;;;;;;;7.03;5.90;;;;;;;;;;5074531;28;20185;-80
2021/07/27 12:38:59;;;;;;;8.23;6.30;;;;;;;;;;5086473;28;20176;-80
2021/07/27 12:41:25;;;;;;;7.23;6.43;;;;;;;;;;5070666;28;20180;-80
2021/07/27 12:43:51;;;;;;;7.73;6.87;;;;;;;;;;5089613;28;20198;-80
2021/07/27 12:46:19;;;;;;;7.30;6.03;;;;;;;;;;5091277;28;20188;-81
2021/07/27 12:48:45;;;;;;;9.57;6.37;;;;;;;;;;5082511;28;20195;-81
2021/07/27 12:51:16;;;;;;;6.70;6.10;;;;;;;;;;5070026;28;20188;-81
2021/07/27 12:53:42;;;;;;;9.20;6.13;;;;;;;;;;5069095;28;20194;-80
2021/07/27 12:56:08;;;;;;;8.33;6.00;;;;;;;;;;5088195;28;20278;-80
2021/07/27 12:58:34;;;;;;;7.80;7.03;;;;;;;;;;5088274;28;20186;-81
2021/07/27 13:01:00;;;;;;;8.03;7.27;;;;;;;;;;5086688;28;20190;-80
2021/07/27 13:03:26;;;;;;;7.73;6.70;;;;;;;;;;5072366;28;20211;-80
2021/07/27 13:05:54;;;;;;;9.63;6.33;;;;;;;;;;5090077;28;20179;-81
2021/07/27 13:08:20;;;;;;;10.90;6.63;;;;;;;;;;5074256;28;20191;-81
2021/07/27 13:10:49;;;;;;;7.27;6.30;;;;;;;;;;5104910;28;20188;-83
2021/07/27 13:13:19;;;;;;;7.23;6.20;;;;;;;;;;5073944;28;20210;-83
2021/07/27 13:15:45;;;;;;;9.23;6.80;;;;;;;;;;5057055;28;20297;-83
2021/07/27 13:18:16;;;;;;;7.80;6.83;;;;;;;;;;5074061;28;20175;-77
2021/07/27 13:20:43;;;;;;;8.83;6.30;;;;;;;;;;5091628;28;20182;-82
2021/07/27 13:23:09;;;;;;;7.33;6.43;;;;;;;;;;5086903;28;20582;-87
2021/07/27 13:25:35;;;;;;;7.20;6.13;;;;;;;;;;5075402;28;20187;-87
2021/07/27 13:28:01;;;;;;;6.60;6.00;;;;;;;;;;5075104;28;20701;-87
2021/07/27 13:30:27;;;;;;;8.77;6.43;;;;;;;;;;5090868;28;20181;-87
2021/07/27 13:32:54;;;;;;;6.27;5.70;;;;;;;;;;5063358;28;20209;-87
2021/07/27 13:35:20;;;;;;;7.47;6.37;;;;;;;;;;5091994;28;20183;-87
2021/07/27 13:37:46;;;;;;;6.60;5.87;;;;;;;;;;5065894;28;20215;-87
2021/07/27 13:40:12;;;;;;;6.70;6.10;;;;;;;;;;5072182;28;20231;-87
2021/07/27 13:42:38;;;;;;;7.30;6.03;;;;;;;;;;5069319;28;20194;-87
2021/07/27 13:45:05;;;;;;;6.23;5.63;;;;;;;;;;5070213;28;20507;-87
2021/07/27 13:47:32;;;;;;;6.73;6.10;;;;;;;;;;5067016;28;20307;-85
2021/07/27 13:50:02;;;;;;;6.40;5.80;;;;;;;;;;5075853;28;20738;-85
2021/07/27 13:52:28;;;;;;;8.17;7.37;;;;;;;;;;5073632;28;20208;-89
2021/07/27 13:54:54;;;;;;;7.60;6.07;;;;;;;;;;5077116;28;20313;-89
2021/07/27 13:57:21;;;;;;;9.83;6.70;;;;;;;;;;5096006;28;20214;-88
2021/07/27 13:59:47;;;;;;;6.83;5.93;;;;;;;;;;5088984;28;20262;-88
2021/07/27 14:02:13;;;;;;;6.07;5.57;;;;;;;;;;5076699;28;20180;-88
2021/07/27 14:04:39;;;;;;;8.10;7.40;;;;;;;;;;5077795;28;20617;-89
2021/07/27 14:07:05;;;;;;;7.37;6.43;;;;;;;;;;5101766;28;20248;-87
2021/07/27 14:09:33;;;;;;;9.63;6.13;;;;;;;;;;5077640;28;20180;-87
2021/07/27 14:11:59;;;;;;;7.90;5.90;;;;;;;;;;5076433;28;20177;-87
2021/07/27 14:14:25;;;;;;;7.07;6.00;;;;;;;;;;5079607;28;20249;-87
2021/07/27 14:16:51;;;;;;;8.20;6.53;;;;;;;;;;5099705;28;20420;-87
2021/07/27 14:19:17;;;;;;;7.67;5.97;;;;;;;;;;5103236;28;20425;-86
2021/07/27 14:21:43;;;;;;;6.23;5.73;;;;;;;;;;5083166;28;20185;-86
2021/07/27 14:24:09;;;;;;;7.00;6.37;;;;;;;;;;5069890;28;20675;-87
2021/07/27 14:26:36;;;;;;;5.90;5.30;;;;;;;;;;5074477;28;20183;-87
2021/07/27 14:29:02;;;;;;;8.23;6.10;;;;;;;;;;5071306;28;20687;-87
2021/07/27 14:31:28;;;;;;;7.30;6.60;;;;;;;;;;5076844;28;20249;-87
2021/07/27 14:33:56;;;;;;;6.80;6.10;;;;;;;;;;5077278;28;20194;-87
2021/07/27 14:36:22;;;;;;;16.67;8.80;;;;;;;;;;5063760;28;20195;-87
2021/07/27 14:38:49;;;;;;;11.77;9.30;;;;;;;;;;5076469;28;20260;-89
2021/07/27 14:41:15;;;;;;;10.73;7.97;;;;;;;;;;5076562;28;20182;-86
2021/07/27 14:43:41;;;;;;;10.63;7.53;;;;;;;;;;5071421;28;20178;-86
2021/07/27 14:46:07;;;;;;;9.87;7.77;;;;;;;;;;5075907;28;20181;-86
2021/07/27 14:48:34;;;;;;;10.73;8.27;;;;;;;;;;5071818;28;20255;-86
2021/07/27 14:51:00;;;;;;;8.97;7.60;;;;;;;;;;5075238;28;20190;-86
2021/07/27 14:53:26;;;;;;;8.27;7.17;;;;;;;;;;5068762;28;20314;-85
2021/07/27 14:55:52;;;;;;;10.17;6.83;;;;;;;;;;5074129;28;20232;-85
2021/07/27 14:58:18;;;;;;;10.83;8.47;;;;;;;;;;5075064;28;20626;-86